Burlington, VT

9:33 AM EDT on October 24, 2014 (GMT -0400)
Lakeside Ave | Change Station
CLOSE
Current Station
Personal Weather Station
Location: BURLINGTON, VT
Elevation: 112 ft
Nearby Weather Stations

Elev 112 ft 44.46 °N, 73.22 °W | Updated 16 minutes ago

Overcast
Overcast
42.9 °F
Feels Like 36 °F
N
13.0
Wind Variable Wind from NNW
Gusts 13.0 mph

Today
High -- | Low -- °F
--% Chance of Precip.
Yesterday
High -- | Low -- °F
Precip. -- in
7:19 AM 5:53 PM
New Moon, 0% visible
Pressure 29.87 in
Visibility 2.0 miles
Clouds Overcast 700 ft
Windchill 36 °F
Dew Point 43 °F
Humidity 100%
Rainfall 0.00 in
Snow Depth Not available.
UV 0 out of 12
Pollen .10 out of 12
Ozone Good
PM2.5 Good
Flu Activity Sporadic
SPECI KBTV 241323Z 35009KT 2SM BR OVC007 06/04 A2987 RMK AO2 CIG 004V011 T00560044

More Conditions Fewer Conditions

Pressure 29.87 in
Visibility 2.0 miles
Clouds Overcast 700 ft
Windchill 36 °F
Dew Point 43 °F
Humidity 100%
Rainfall 0.00 in
Snow Depth Not available.
UV 0 out of 12
Pollen .10 out of 12
Ozone Good
PM2.5 Good
Flu Activity Sporadic
SPECI KBTV 241323Z 35009KT 2SM BR OVC007 06/04 A2987 RMK AO2 CIG 004V011 T00560044

More Conditions Fewer Conditions

10-Day Weather Forecast

Almanac

Astronomy

Oct. 24, 2014 Rise Set
Actual Time 7:19 AM EDT 5:53 PM EDT
Civil Twilight 6:49 AM EDT 6:23 PM EDT
Nautical Twilight 6:15 AM EDT 6:57 PM EDT
Astronomical Twilight 5:42 AM EDT 7:31 PM EDT
Moon 7:57 AM EDT 6:30 PM EDT
Length of Visible Light 11h 33m
Length of Day
10h 34m
Tomorrow will be 2m 52s shorter.
New Moon, 0% of the Moon is Illuminated
Today
New Moon
Oct 30
First Quarter
Nov 6
Full
Nov 14
Last Quarter
Nov 22
New

Today's Extremes

State Highs State Lows

Community

WunderPhotos

Upload Photos

1,764,550 photos uploaded!

WunderBlogs® & News

Nearby

Air Quality

  Air Quality AQ Index Pollutant
Yesterday Good
OZONE
Yesterday Good
PM2.5
Current Good
OZONE
Current Good
PM2.5
Friday Good
PM2.5

Snow Depth

Station Depth Elevation
No new snow has been reported.

Earthquake Activity

City Distance Mag. Time & Date
No recent earthquake activity has been reported nearby.
Minimum magnitude displayed is 2.5.

Coastal Water Temperatures

Place Temperature
No Stations Reporting

Nearby Weather Stations